Time;durP1;ratioP1;P1;durP2;ratioP2;P2;SDS_P1;SDS_P2;PMS_P1;PMS_P2;Temp;Humidity;BMP_temperature;BMP_pressure;BME280_temperature;BME280_humidity;BME280_pressure;Samples;Min_cycle;Max_cycle;Signal;HPM_P1;HPM_P2
2023/10/30 06:12:39;;;;;;;;;;;;;;;8.48;100.00;99987.52;1832442;78;20093;-65
2023/10/30 06:15:07;;;;;;;;;;;;;;;8.60;100.00;99993.88;1833426;78;20102;-68
2023/10/30 06:17:34;;;;;;;;;;;;;;;8.72;100.00;99992.45;1833218;78;20129;-70
2023/10/30 06:20:01;;;;;;;;;;;;;;;8.83;100.00;99984.95;1832673;78;20140;-81
2023/10/30 06:22:29;;;;;;;;;;;;;;;8.96;100.00;99981.67;1832704;77;20125;-65
2023/10/30 06:24:58;;;;;;;;;;;;;;;9.07;100.00;99981.59;1838424;77;20158;-73
2023/10/30 06:27:25;;;;;;;;;;;;;;;9.19;100.00;99984.42;1841845;77;20150;-75
2023/10/30 06:29:52;;;;;;;;;;;;;;;9.31;100.00;99992.86;1833918;77;20139;-78
2023/10/30 06:32:19;;;;;;;;;;;;;;;9.46;100.00;99995.59;1833850;78;20394;-75
2023/10/30 06:34:45;;;;;;;;;;;;;;;9.59;100.00;99993.58;1834600;77;20080;-74
2023/10/30 06:37:13;;;;;;;;;;;;;;;9.74;100.00;99995.81;1839317;77;20396;-76
2023/10/30 06:39:39;;;;;;;;;;;;;;;9.88;100.00;99998.52;1832101;78;20156;-68
2023/10/30 06:49:37;;;;;;;;;;;;;;;10.40;100.00;100013.08;1833139;78;20097;-74
2023/10/30 06:52:04;;;;;;;;;;;;;;;10.50;100.00;100003.80;1843288;77;20100;-75
2023/10/30 06:54:33;;;;;;;;;;;;;;;10.60;100.00;100009.72;1858714;77;20122;-76
2023/10/30 06:56:59;;;;;;;;;;;;;;;10.71;100.00;100006.97;1860271;77;20095;-74
2023/10/30 06:59:27;;;;;;;;;;;;;;;10.80;100.00;99998.61;1867185;77;20083;-76
2023/10/30 07:01:53;;;;;;;;;;;;;;;10.90;100.00;100008.42;1843949;77;20423;-75
2023/10/30 07:06:52;;;;;;;;;;;;;;;11.09;100.00;100005.59;1822008;77;20391;-75
2023/10/30 07:09:19;;;;;;;;;;;;;;;11.17;100.00;100008.59;1825514;77;20130;-73
2023/10/30 07:11:46;;;;;;;;;;;;;;;11.25;100.00;100003.73;1822435;77;20137;-77
2023/10/30 07:14:13;;;;;;;;;;;;;;;11.33;100.00;100004.13;1823809;77;20106;-72
2023/10/30 07:16:40;;;;;;;;;;;;;;;11.43;100.00;99998.37;1766595;81;20080;-75
2023/10/30 07:19:06;;;;;;;;;;;;;;;11.51;100.00;99994.84;1773339;81;20375;-74
2023/10/30 07:21:33;;;;;;;;;;;;;;;11.59;100.00;99995.22;1757482;80;20100;-74
2023/10/30 07:23:59;;;;;;;;;;;;;;;11.65;100.00;99991.74;1758877;80;20119;-76
2023/10/30 07:26:26;;;;;;;;;;;;;;;11.72;100.00;99984.84;1756520;80;20117;-75
2023/10/30 07:28:54;;;;;;;;;;;;;;;11.76;100.00;99988.48;1762067;80;20364;-74
2023/10/30 07:31:22;;;;;;;;;;;;;;;11.85;100.00;99988.42;1756096;80;20135;-75
2023/10/30 07:33:52;;;;;;;;;;;;;;;11.93;100.00;99978.34;1760960;80;20103;-74
2023/10/30 07:36:18;;;;;;;;;;;;;;;11.99;100.00;99971.45;1757090;80;20278;-77
2023/10/30 07:38:45;;;;;;;;;;;;;;;12.06;100.00;99977.09;1756505;80;20108;-77
2023/10/30 07:41:15;;;;;;;;;;;;;;;12.13;100.00;99974.47;1761964;80;20159;-69
2023/10/30 07:43:43;;;;;;;;;;;;;;;12.20;100.00;99973.98;1755855;80;20159;-70
2023/10/30 07:46:14;;;;;;;;;;;;;;;12.25;100.00;99971.08;1758928;80;20400;-76
2023/10/30 07:51:11;;;;;;;;;;;;;;;12.36;100.00;99973.85;1752791;82;20158;-76
2023/10/30 07:53:38;;;;;;;;;;;;;;;12.53;100.00;99972.73;1753259;82;20099;-76
2023/10/30 07:56:05;;;;;;;;;;;;;;;12.71;100.00;99966.32;1758916;80;20118;-74
2023/10/30 07:58:32;;;;;;;;;;;;;;;12.88;100.00;99967.80;1752884;82;20121;-75
2023/10/30 08:01:00;;;;;;;;;;;;;;;13.04;100.00;99967.15;1761032;80;20410;-76
2023/10/30 08:03:27;;;;;;;;;;;;;;;13.20;100.00;99962.56;1747447;81;20207;-77
2023/10/30 08:08:24;;;;;;;;;;;;;;;13.55;100.00;99957.55;1742180;81;20140;-74
2023/10/30 08:10:50;;;;;;;;;;;;;;;13.64;100.00;99962.12;1751400;81;20607;-75
2023/10/30 08:15:52;;;;;;;;;;;;;;;13.87;100.00;99965.75;1752802;81;20148;-77
2023/10/30 08:18:19;;;;;;;;;;;;;;;14.07;100.00;99964.78;1715972;81;20485;-76
2023/10/30 08:20:50;;;;;;;;;;;;;;;14.26;100.00;99978.24;1753045;81;20512;-81
2023/10/30 08:23:18;;;;;;;;;;;;;;;14.45;100.00;99974.66;1740155;83;20087;-78
2023/10/30 08:25:46;;;;;;;;;;;;;;;14.63;100.00;99970.70;1742851;82;20376;-81
2023/10/30 08:28:12;;;;;;;;;;;;;;;14.75;100.00;99981.23;1748737;82;20101;-78
2023/10/30 08:30:39;;;;;;;;;;;;;;;14.85;100.00;99976.95;1741109;81;20176;-69
2023/10/30 08:33:06;;;;;;;;;;;;;;;14.91;100.00;99983.06;1758013;82;20106;-70
2023/10/30 08:35:33;;;;;;;;;;;;;;;14.96;100.00;99978.31;1743278;82;20433;-73
2023/10/30 08:40:29;;;;;;;;;;;;;;;14.97;100.00;99984.75;1741787;82;20134;-68
2023/10/30 08:42:56;;;;;;;;;;;;;;;14.98;100.00;99987.73;1744651;81;20124;-75
2023/10/30 08:47:57;;;;;;;;;;;;;;;15.03;100.00;99984.77;1758049;82;20094;-75
2023/10/30 08:50:23;;;;;;;;;;;;;;;15.04;100.00;99981.67;1756768;81;20447;-74
2023/10/30 08:52:50;;;;;;;;;;;;;;;15.01;100.00;99977.02;1747657;82;20142;-75
2023/10/30 08:55:16;;;;;;;;;;;;;;;14.98;100.00;99977.25;1740868;81;20174;-73
2023/10/30 08:57:43;;;;;;;;;;;;;;;14.96;100.00;99970.45;1729502;83;20116;-72
2023/10/30 09:00:12;;;;;;;;;;;;;;;14.93;100.00;99976.75;1727983;83;20155;-75
2023/10/30 09:02:39;;;;;;;;;;;;;;;14.91;100.00;99973.41;1736160;82;20217;-72
2023/10/30 09:05:07;;;;;;;;;;;;;;;14.90;100.00;99959.09;1739800;82;20162;-76
2023/10/30 09:07:34;;;;;;;;;;;;;;;14.85;100.00;99961.23;1739457;82;20240;-75
2023/10/30 09:10:01;;;;;;;;;;;;;;;14.80;100.00;99953.70;1739631;82;20146;-71
2023/10/30 09:12:31;;;;;;;;;;;;;;;14.75;100.00;99948.00;1739829;81;20476;-70
2023/10/30 09:14:59;;;;;;;;;;;;;;;14.72;100.00;99948.23;1740466;82;20456;-74
2023/10/30 09:17:26;;;;;;;;;;;;;;;14.68;100.00;99950.23;1740411;82;20162;-69
2023/10/30 09:19:54;;;;;;;;;;;;;;;14.66;100.00;99948.20;1747297;81;20144;-67
2023/10/30 09:24:52;;;;;;;;;;;;;;;14.71;100.00;99942.63;1746857;81;20139;-76
2023/10/30 09:27:20;;;;;;;;;;;;;;;14.75;100.00;99944.06;1759997;81;20147;-72
2023/10/30 09:29:47;;;;;;;;;;;;;;;14.81;100.00;99946.68;1760746;82;20465;-73
2023/10/30 09:32:14;;;;;;;;;;;;;;;14.86;100.00;99941.45;1757699;81;20162;-75
2023/10/30 09:34:41;;;;;;;;;;;;;;;14.94;100.00;99939.57;1740906;82;20158;-73
2023/10/30 09:37:07;;;;;;;;;;;;;;;15.03;100.00;99934.95;1757718;81;20387;-74
2023/10/30 09:39:34;;;;;;;;;;;;;;;15.11;100.00;99942.23;1741002;82;20107;-71
2023/10/30 09:42:01;;;;;;;;;;;;;;;15.20;100.00;99933.16;1750478;81;20172;-68
2023/10/30 09:44:29;;;;;;;;;;;;;;;15.29;100.00;99935.55;1750878;81;20135;-78
2023/10/30 09:46:56;;;;;;;;;;;;;;;15.37;100.00;99937.59;1748536;81;20154;-73
2023/10/30 09:49:23;;;;;;;;;;;;;;;15.44;100.00;99929.61;1748285;81;20103;-72
2023/10/30 09:51:55;;;;;;;;;;;;;;;15.50;100.00;99930.45;1744456;81;20417;-73
2023/10/30 10:01:57;;;;;;;;;;;;;;;15.70;100.00;99923.17;1720609;82;20118;-80
2023/10/30 10:04:24;;;;;;;;;;;;;;;15.76;100.00;99922.69;1762466;80;20123;-73
2023/10/30 10:06:51;;;;;;;;;;;;;;;15.81;100.00;99929.72;1762336;80;20147;-72
2023/10/30 10:09:17;;;;;;;;;;;;;;;15.82;100.00;99922.20;1757646;80;20173;-71
2023/10/30 10:11:44;;;;;;;;;;;;;;;15.83;100.00;99930.91;1755887;80;20138;-74
2023/10/30 10:14:11;;;;;;;;;;;;;;;15.81;100.00;99917.08;1762221;80;20170;-71
2023/10/30 10:16:41;;;;;;;;;;;;;;;15.80;100.00;99918.86;1764669;80;20141;-72
2023/10/30 10:19:20;;;;;;;;;;;;;;;15.76;100.00;99920.54;1760207;80;20118;-70
2023/10/30 10:21:51;;;;;;;;;;;;;;;15.74;100.00;99918.03;1767178;80;20157;-74
2023/10/30 10:24:29;;;;;;;;;;;;;;;15.75;100.00;99917.08;1756965;82;20543;-76
2023/10/30 10:27:04;;;;;;;;;;;;;;;15.76;100.00;99914.81;1757810;80;20172;-73
2023/10/30 10:29:31;;;;;;;;;;;;;;;15.80;100.00;99918.86;1757912;82;20096;-74
2023/10/30 14:29:50;;;;;;;;;;;;;;;14.45;100.00;99814.02;1760066;80;20111;-72
2023/10/30 14:32:19;;;;;;;;;;;;;;;14.40;100.00;99810.87;1756390;80;20535;-71
2023/10/30 14:37:19;;;;;;;;;;;;;;;14.29;100.00;99805.16;1768631;80;20100;-72
2023/10/30 14:39:45;;;;;;;;;;;;;;;14.23;100.00;99802.99;1752861;80;20533;-68
2023/10/30 14:47:10;;;;;;;;;;;;;;;14.05;100.00;99801.73;1760101;80;20134;-68
2023/10/30 14:49:37;;;;;;;;;;;;;;;14.00;100.00;99802.07;1757889;80;20558;-68
2023/10/30 14:52:04;;;;;;;;;;;;;;;13.95;100.00;99801.13;1767296;80;20129;-74
2023/10/30 14:54:33;;;;;;;;;;;;;;;13.90;100.00;99801.94;1767478;80;20146;-74
2023/10/30 14:57:00;;;;;;;;;;;;;;;13.86;100.00;99799.18;1753558;80;20197;-75
2023/10/30 14:59:27;;;;;;;;;;;;;;;13.83;100.00;99796.78;1752826;80;20123;-71
